Terminal Aerodrome Forecast
Issued by NWS Mt. Holly, NJ

Home | Current Version | Previous Version | Text Only | Print | Product List | Glossary On
Versions: 1 2 3 4 5 6 7 8 9 10 11 12 13
000
FTUS41 KPHI 271120
TAFRDG
TAF
KRDG 271120Z 2712/2812 32006KT P6SM OVC060
     FM271500 31012G20KT P6SM BKN040
     FM280000 33010KT P6SM BKN120=

USA.gov is the U.S. government's official web portal to all federal, state and local government web resources and services.